createdAt,value
2022-10-23T04:31:43.835Z,10.10
2022-10-23T04:34:10.533Z,10.00
2022-10-23T04:36:37.189Z,10.10
2022-10-23T04:39:04.043Z,10.10
2022-10-23T04:41:30.747Z,10.10
2022-10-23T04:43:57.399Z,10.10
2022-10-23T04:46:24.051Z,10.10
2022-10-23T04:48:50.795Z,10.00
2022-10-23T04:51:17.520Z,10.10
2022-10-23T04:53:44.162Z,10.00
2022-10-23T04:56:15.410Z,10.00
2022-10-23T04:58:42.671Z,10.00
2022-10-23T05:01:12.985Z,10.00
2022-10-23T05:03:39.802Z,10.10
2022-10-23T05:06:07.002Z,10.10
2022-10-23T05:08:35.780Z,10.10
2022-10-23T05:11:02.904Z,10.10
2022-10-23T05:13:29.593Z,10.00
2022-10-23T05:15:59.768Z,10.00
2022-10-23T05:18:40.388Z,10.00
2022-10-23T05:21:14.249Z,9.90
2022-10-23T05:23:44.373Z,9.90
2022-10-23T05:26:11.048Z,9.80
2022-10-23T05:28:37.721Z,9.80
2022-10-23T05:31:06.302Z,9.80
2022-10-23T05:33:34.691Z,9.80
2022-10-23T05:36:01.878Z,9.80
2022-10-23T05:38:32.238Z,9.80
2022-10-23T05:40:59.021Z,9.90
2022-10-23T05:43:27.294Z,9.70
2022-10-23T05:45:54.299Z,9.70
2022-10-23T05:48:34.395Z,9.70
2022-10-23T05:51:10.614Z,9.80
2022-10-23T05:53:40.192Z,9.80
2022-10-23T05:56:09.734Z,9.80
2022-10-23T05:58:36.744Z,9.80
2022-10-23T06:01:09.034Z,9.80
2022-10-23T06:03:37.336Z,9.80
2022-10-23T06:06:04.803Z,9.70
2022-10-23T06:08:32.542Z,9.60
2022-10-23T06:11:04.683Z,9.60
2022-10-23T06:13:31.369Z,9.60
2022-10-23T06:15:58.094Z,9.60
2022-10-23T06:18:24.771Z,9.70
2022-10-23T06:20:51.461Z,9.70
2022-10-23T06:23:18.147Z,9.70
2022-10-23T06:25:53.591Z,9.80
2022-10-23T06:28:20.791Z,9.80
2022-10-23T06:30:47.627Z,9.90
2022-10-23T06:33:14.299Z,9.80
2022-10-23T06:35:40.995Z,9.90
2022-10-23T06:38:09.145Z,9.80
2022-10-23T06:40:36.472Z,9.90
2022-10-23T06:43:04.534Z,10.10
2022-10-23T06:45:33.903Z,10.10
2022-10-23T06:48:01.285Z,10.20
2022-10-23T06:50:31.015Z,10.30
2022-10-23T06:52:57.914Z,10.30
2022-10-23T06:55:24.751Z,10.40
2022-10-23T06:57:51.502Z,10.40
2022-10-23T07:00:18.232Z,10.50
2022-10-23T07:02:45.100Z,10.60
2022-10-23T07:05:13.668Z,10.60
2022-10-23T07:07:40.890Z,10.80
2022-10-23T07:10:08.119Z,10.90
2022-10-23T07:12:34.890Z,11.00
2022-10-23T07:15:01.651Z,11.20
2022-10-23T07:17:31.507Z,11.40
2022-10-23T07:19:58.330Z,11.50
2022-10-23T07:22:25.043Z,11.60
2022-10-23T07:24:51.769Z,12.00
2022-10-23T07:27:18.464Z,12.30
2022-10-23T07:29:45.157Z,12.60
2022-10-23T07:32:11.899Z,12.90
2022-10-23T07:34:38.597Z,13.30
2022-10-23T07:37:05.356Z,13.50
2022-10-23T07:39:32.044Z,13.80
2022-10-23T07:41:58.743Z,14.00
2022-10-23T07:44:27.647Z,14.40
2022-10-23T07:46:54.618Z,14.90
2022-10-23T07:49:21.304Z,15.20
2022-10-23T07:51:51.233Z,15.40
2022-10-23T07:54:18.552Z,15.60
2022-10-23T07:56:45.253Z,16.00
2022-10-23T07:59:13.256Z,16.30
2022-10-23T08:01:42.731Z,16.60
2022-10-23T08:04:10.522Z,17.00
2022-10-23T08:06:37.210Z,17.30
2022-10-23T08:09:06.538Z,17.60
2022-10-23T08:11:35.814Z,18.00
2022-10-23T08:14:04.772Z,18.60
2022-10-23T08:16:34.327Z,19.40
2022-10-23T08:19:01.555Z,19.90
2022-10-23T08:21:28.595Z,19.80
2022-10-23T08:23:59.712Z,19.70
2022-10-23T08:26:29.453Z,19.50
2022-10-23T08:28:58.671Z,19.90
2022-10-23T08:31:26.194Z,20.60
2022-10-23T08:33:53.132Z,21.60
2022-10-23T08:36:23.990Z,22.70
2022-10-23T08:38:53.899Z,24.00
2022-10-23T08:41:33.149Z,25.10
2022-10-23T08:44:21.159Z,26.20
2022-10-23T08:46:59.288Z,27.00
2022-10-23T08:49:56.650Z,27.60
2022-10-23T08:52:41.755Z,28.00
2022-10-23T08:55:29.571Z,28.30
2022-10-23T08:58:07.617Z,28.90
2022-10-23T09:00:35.347Z,29.60
2022-10-23T09:03:05.020Z,29.80
2022-10-23T09:05:37.043Z,29.10
2022-10-23T09:08:09.549Z,28.30
2022-10-23T09:10:40.466Z,27.50
2022-10-23T09:13:32.376Z,27.10
2022-10-23T09:16:20.275Z,27.30
2022-10-23T09:18:49.643Z,27.50
2022-10-23T09:21:16.503Z,27.60
2022-10-23T09:23:43.327Z,27.60
2022-10-23T09:26:16.239Z,27.40
2022-10-23T09:28:47.551Z,27.40
2022-10-23T09:31:14.987Z,26.80
2022-10-23T09:33:41.997Z,26.30
2022-10-23T09:36:20.621Z,25.80
2022-10-23T09:38:47.333Z,25.60
2022-10-23T09:41:17.317Z,25.20
2022-10-23T09:43:44.176Z,24.90
2022-10-23T09:46:11.953Z,24.60
2022-10-23T09:48:39.958Z,24.20
2022-10-23T09:51:19.343Z,24.20
2022-10-23T09:53:55.919Z,24.20
2022-10-23T09:56:33.235Z,24.30
2022-10-23T09:59:05.925Z,24.20
2022-10-23T10:01:38.515Z,24.40
2022-10-23T10:04:05.306Z,24.80
2022-10-23T10:06:33.624Z,24.90
2022-10-23T10:09:05.402Z,24.40
2022-10-23T10:12:16.179Z,24.20
2022-10-23T10:14:56.939Z,24.00
2022-10-23T10:17:37.683Z,24.00
2022-10-23T10:20:12.454Z,24.10
2022-10-23T10:23:17.434Z,24.80
2022-10-23T10:25:56.190Z,24.60
2022-10-23T10:29:06.104Z,24.60
2022-10-23T10:31:53.113Z,24.90
2022-10-23T10:34:50.338Z,25.10
2022-10-23T10:37:50.537Z,24.80
2022-10-23T10:40:31.841Z,24.50
2022-10-23T10:43:19.702Z,24.20
2022-10-23T10:45:57.330Z,24.10
2022-10-23T10:48:41.943Z,24.00
2022-10-23T10:51:21.454Z,23.80
2022-10-23T10:54:19.192Z,23.50
2022-10-23T10:56:47.824Z,23.20
2022-10-23T10:59:17.356Z,23.00
2022-10-23T11:02:22.517Z,23.00
2022-10-23T11:04:57.924Z,23.20
2022-10-23T11:07:32.464Z,23.20
2022-10-23T11:10:03.412Z,23.50
2022-10-23T11:12:30.121Z,23.50
2022-10-23T11:14:56.923Z,23.60
2022-10-23T11:17:38.784Z,24.10
2022-10-23T11:20:28.935Z,24.60
2022-10-23T11:23:25.420Z,25.50
2022-10-23T11:26:36.873Z,26.00
2022-10-23T11:29:16.443Z,26.60
2022-10-23T11:32:11.597Z,27.40
2022-10-23T11:35:06.483Z,28.00
2022-10-23T11:37:33.648Z,27.50
2022-10-23T11:40:09.292Z,27.40
2022-10-23T11:42:39.009Z,27.40
2022-10-23T11:45:36.703Z,27.00
2022-10-23T11:48:18.399Z,26.30
2022-10-23T11:50:45.060Z,25.10
2022-10-23T11:53:34.113Z,24.60
2022-10-23T11:56:13.205Z,24.00
2022-10-23T11:58:45.080Z,23.10
2022-10-23T12:01:30.598Z,22.60
2022-10-23T12:04:12.691Z,22.20
2022-10-23T12:07:15.459Z,22.00
2022-10-23T12:09:51.789Z,21.80
2022-10-23T12:12:28.199Z,21.60
2022-10-23T12:15:14.499Z,21.40
2022-10-23T12:17:43.320Z,20.90
2022-10-23T12:20:14.202Z,20.50
2022-10-23T12:23:05.546Z,20.30
2022-10-23T12:25:57.031Z,20.10
2022-10-23T12:28:38.851Z,19.90
2022-10-23T12:31:20.770Z,19.90
2022-10-23T12:33:53.354Z,19.90
2022-10-23T12:36:58.074Z,19.80
2022-10-23T12:39:29.222Z,19.60
2022-10-23T12:41:57.092Z,19.50
2022-10-23T12:44:27.476Z,19.50
2022-10-23T12:47:02.723Z,19.40
2022-10-23T12:49:33.492Z,19.40
2022-10-23T12:52:05.796Z,19.30
2022-10-23T12:54:38.394Z,19.30
2022-10-23T12:57:23.520Z,19.30
2022-10-23T12:59:55.207Z,19.10
2022-10-23T13:02:27.311Z,18.90
2022-10-23T13:04:56.967Z,18.70
2022-10-23T13:07:27.388Z,18.80
2022-10-23T13:09:54.874Z,18.80
2022-10-23T13:12:31.897Z,18.70
2022-10-23T13:15:01.082Z,18.50
2022-10-23T13:17:59.326Z,18.40
2022-10-23T13:20:50.763Z,18.30
2022-10-23T13:23:24.873Z,18.20
2022-10-23T13:25:55.175Z,18.30
2022-10-23T13:28:42.519Z,18.40
2022-10-23T13:31:14.934Z,18.50
2022-10-23T13:33:47.347Z,18.50
2022-10-23T13:36:17.395Z,18.60
2022-10-23T13:38:46.066Z,18.60
2022-10-23T13:41:16.002Z,18.60
2022-10-23T13:43:43.627Z,18.60
2022-10-23T13:46:27.085Z,18.60
2022-10-23T13:48:53.978Z,18.70
2022-10-23T13:51:22.222Z,18.60
2022-10-23T13:53:49.453Z,18.50
2022-10-23T13:56:18.933Z,18.30
2022-10-23T13:58:45.863Z,18.20
2022-10-23T14:01:35.367Z,18.10
2022-10-23T14:04:04.387Z,18.10
2022-10-23T14:06:31.960Z,18.00
2022-10-23T14:08:58.831Z,17.90
2022-10-23T14:11:26.019Z,17.90
2022-10-23T14:13:52.761Z,18.00
2022-10-23T14:16:21.093Z,18.20
2022-10-23T14:18:48.063Z,18.20
2022-10-23T14:21:17.372Z,18.10
2022-10-23T14:23:44.089Z,18.20
2022-10-23T14:26:13.472Z,18.30
2022-10-23T14:28:40.199Z,18.30
2022-10-23T14:31:17.782Z,18.40
2022-10-23T14:33:45.592Z,18.60
2022-10-23T14:36:12.718Z,18.80
2022-10-23T14:38:39.667Z,18.70
2022-10-23T14:41:14.038Z,18.80
2022-10-23T14:43:42.595Z,19.20
2022-10-23T14:46:14.565Z,19.80
2022-10-23T14:48:45.490Z,20.20
2022-10-23T14:51:26.523Z,20.20
2022-10-23T14:54:03.917Z,20.00
2022-10-23T14:56:34.315Z,19.90
2022-10-23T14:59:04.059Z,19.70
2022-10-23T15:01:33.039Z,19.50
2022-10-23T15:03:59.863Z,19.40
2022-10-23T15:06:26.669Z,19.10
2022-10-23T15:08:57.040Z,18.90
2022-10-23T15:11:25.215Z,18.80
2022-10-23T15:13:52.901Z,18.70
2022-10-23T15:16:19.590Z,18.50
2022-10-23T15:18:46.278Z,18.40
2022-10-23T15:21:13.356Z,18.40
2022-10-23T15:23:42.691Z,18.40
2022-10-23T15:26:20.643Z,18.30
2022-10-23T15:28:48.367Z,18.30
2022-10-23T15:31:30.079Z,18.10
2022-10-23T15:33:57.690Z,18.00
2022-10-23T15:36:24.507Z,17.90
2022-10-23T15:38:51.822Z,17.90
2022-10-23T15:41:26.463Z,17.70
2022-10-23T15:43:53.644Z,17.40
2022-10-23T15:46:20.713Z,17.30
2022-10-23T15:48:47.399Z,17.10
2022-10-23T15:51:14.079Z,17.00
2022-10-23T15:53:40.813Z,17.00
2022-10-23T15:56:07.601Z,16.80
2022-10-23T15:58:34.278Z,16.70
2022-10-23T16:01:06.496Z,16.80
2022-10-23T16:03:35.258Z,16.80
2022-10-23T16:06:10.801Z,16.70
2022-10-23T16:08:37.821Z,16.70
2022-10-23T16:11:12.193Z,16.70
2022-10-23T16:13:38.829Z,16.60
2022-10-23T16:16:05.884Z,16.40
2022-10-23T16:18:32.640Z,16.30
2022-10-23T16:20:59.282Z,16.40
2022-10-23T16:23:28.175Z,16.40
2022-10-23T16:25:55.416Z,16.50
2022-10-23T16:28:22.122Z,16.50
2022-10-23T16:30:48.776Z,16.50
2022-10-23T16:33:15.458Z,16.50
2022-10-23T16:35:42.103Z,16.50
2022-10-23T16:38:08.817Z,16.50
2022-10-23T16:40:35.481Z,16.50
2022-10-23T16:43:02.114Z,16.30
2022-10-23T16:45:28.925Z,16.30
2022-10-23T16:47:55.570Z,16.20
2022-10-23T16:50:23.088Z,16.20
2022-10-23T16:52:52.093Z,16.20
2022-10-23T16:55:22.094Z,16.30
2022-10-23T16:57:48.762Z,16.10
2022-10-23T17:00:15.790Z,16.00
2022-10-23T17:02:42.808Z,16.10
2022-10-23T17:05:09.722Z,16.10
2022-10-23T17:07:37.182Z,16.00
2022-10-23T17:10:04.277Z,16.00
2022-10-23T17:12:30.957Z,16.00
2022-10-23T17:14:57.731Z,16.00
2022-10-23T17:17:24.388Z,15.90
2022-10-23T17:19:51.091Z,15.80
2022-10-23T17:22:17.782Z,15.80
2022-10-23T17:24:47.370Z,15.80
2022-10-23T17:27:16.930Z,15.70
2022-10-23T17:29:43.862Z,15.70
2022-10-23T17:32:10.686Z,15.70
2022-10-23T17:34:37.921Z,15.70
2022-10-23T17:37:04.564Z,15.80
2022-10-23T17:39:31.228Z,15.80
2022-10-23T17:41:58.282Z,15.80
2022-10-23T17:44:25.171Z,15.70
2022-10-23T17:46:55.561Z,15.70
2022-10-23T17:49:23.470Z,15.70
2022-10-23T17:51:55.972Z,15.70
2022-10-23T17:54:23.911Z,15.70
2022-10-23T17:56:50.754Z,15.70
2022-10-23T17:59:20.884Z,15.70
2022-10-23T18:01:48.679Z,15.80
2022-10-23T18:04:18.394Z,15.80
2022-10-23T18:06:51.137Z,15.90
2022-10-23T18:09:18.758Z,15.90
2022-10-23T18:11:48.254Z,15.80
2022-10-23T18:14:17.066Z,15.70
2022-10-23T18:16:45.622Z,15.70
2022-10-23T18:19:13.037Z,15.60
2022-10-23T18:21:40.174Z,15.60
2022-10-23T18:24:07.371Z,15.60
2022-10-23T18:26:35.148Z,15.60
2022-10-23T18:29:04.319Z,15.60
2022-10-23T18:31:30.990Z,15.70
2022-10-23T18:34:04.152Z,15.70
2022-10-23T18:36:32.904Z,15.70
2022-10-23T18:38:59.726Z,15.80
2022-10-23T18:41:28.018Z,15.80
2022-10-23T18:43:55.049Z,15.80
2022-10-23T18:46:22.215Z,15.90
2022-10-23T18:48:52.929Z,16.00
2022-10-23T18:51:25.457Z,15.90
2022-10-23T18:53:52.756Z,15.90
2022-10-23T18:56:23.484Z,15.80
2022-10-23T18:58:51.877Z,15.70
2022-10-23T19:01:19.524Z,15.70
2022-10-23T19:03:46.804Z,15.70
2022-10-23T19:06:15.013Z,15.70
2022-10-23T19:08:43.802Z,15.70
2022-10-23T19:11:12.076Z,15.70
2022-10-23T19:13:40.322Z,15.60
2022-10-23T19:16:21.268Z,15.40
2022-10-23T19:18:56.541Z,15.50
2022-10-23T19:21:30.942Z,15.50
2022-10-23T19:24:04.043Z,15.40
2022-10-23T19:26:33.598Z,15.40
2022-10-23T19:29:00.519Z,15.40
2022-10-23T19:31:27.290Z,15.50
2022-10-23T19:33:54.343Z,15.50
2022-10-23T19:36:23.373Z,15.50
2022-10-23T19:38:50.529Z,15.50
2022-10-23T19:41:18.317Z,15.50
2022-10-23T19:43:45.002Z,15.50
2022-10-23T19:46:12.415Z,15.60
2022-10-23T19:48:44.138Z,15.60
2022-10-23T19:51:12.782Z,15.60
2022-10-23T19:53:40.878Z,15.40
2022-10-23T19:56:10.157Z,15.20
2022-10-23T19:58:36.885Z,15.20
2022-10-23T20:01:17.950Z,15.30
2022-10-23T20:03:45.945Z,15.30
2022-10-23T20:06:15.814Z,15.40
2022-10-23T20:08:42.638Z,15.50
2022-10-23T20:11:17.915Z,15.50
2022-10-23T20:13:48.142Z,15.50
2022-10-23T20:16:19.272Z,15.70
2022-10-23T20:18:45.930Z,15.70
2022-10-23T20:21:12.645Z,15.80
2022-10-23T20:23:39.305Z,15.80
2022-10-23T20:26:11.549Z,15.80
2022-10-23T20:28:38.980Z,15.90
2022-10-23T20:31:10.150Z,16.00
2022-10-23T20:33:38.986Z,16.20
2022-10-23T20:36:07.992Z,16.20
2022-10-23T20:38:35.122Z,16.30
2022-10-23T20:41:05.686Z,16.30
2022-10-23T20:43:33.755Z,16.20
2022-10-23T20:46:08.890Z,16.10
2022-10-23T20:48:40.580Z,16.20
2022-10-23T20:51:16.281Z,16.20
2022-10-23T20:53:43.958Z,16.30
2022-10-23T20:56:17.899Z,16.30
2022-10-23T20:58:44.904Z,16.20
2022-10-23T21:01:14.226Z,16.20
2022-10-23T21:03:40.925Z,16.20
2022-10-23T21:06:15.832Z,16.20
2022-10-23T21:08:42.690Z,16.30
2022-10-23T21:11:14.516Z,16.30
2022-10-23T21:13:42.785Z,16.30
2022-10-23T21:16:28.581Z,16.20
2022-10-23T21:18:57.087Z,16.20
2022-10-23T21:21:24.828Z,16.10
2022-10-23T21:23:54.341Z,16.20
2022-10-23T21:26:23.336Z,16.10
2022-10-23T21:29:01.098Z,16.00
2022-10-23T21:31:39.421Z,16.00
2022-10-23T21:34:06.176Z,15.70
2022-10-23T21:36:39.790Z,15.40
2022-10-23T21:39:10.304Z,15.30
2022-10-23T21:41:36.943Z,15.20
2022-10-23T21:44:05.978Z,15.10
2022-10-23T21:46:34.933Z,15.20
2022-10-23T21:49:02.307Z,15.00
2022-10-23T21:51:37.234Z,15.10
2022-10-23T21:54:05.989Z,15.20
2022-10-23T21:56:36.922Z,15.20
2022-10-23T22:01:39.188Z,15.20
2022-10-23T22:04:06.070Z,15.20
2022-10-23T22:06:32.880Z,15.20
2022-10-23T22:09:01.083Z,15.20
2022-10-23T22:11:28.599Z,15.20
2022-10-23T22:13:55.701Z,15.10
2022-10-23T22:16:22.906Z,15.10
2022-10-23T22:18:49.693Z,15.00
2022-10-23T22:21:22.890Z,14.90
2022-10-23T22:23:50.512Z,14.90
2022-10-23T22:26:26.482Z,14.90
2022-10-23T22:28:55.314Z,15.10
2022-10-23T22:31:26.341Z,14.90
2022-10-23T22:33:53.148Z,14.80
2022-10-23T22:36:20.389Z,14.80
2022-10-23T22:38:47.853Z,14.80
2022-10-23T22:41:14.948Z,14.80
2022-10-23T22:43:41.893Z,14.70
2022-10-23T22:46:14.590Z,14.70
2022-10-23T22:48:41.517Z,14.60
2022-10-23T22:51:10.877Z,14.60
2022-10-23T22:53:37.779Z,14.70
2022-10-23T22:56:09.709Z,14.70
2022-10-23T22:58:37.250Z,14.70
